Time;durP1;ratioP1;P1;durP2;ratioP2;P2;SDS_P1;SDS_P2;PMS_P1;PMS_P2;Temp;Humidity;BMP_temperature;BMP_pressure;BME280_temperature;BME280_humidity;BME280_pressure;Samples;Min_cycle;Max_cycle;Signal;HPM_P1;HPM_P2
2021/08/07 00:01:50;;;;;;;;;;;18.40;96.10;;;17.93;88.94;99454.84;4992145;28;20024;-80
2021/08/07 00:04:19;;;;;;;;;;;18.30;96.00;;;17.93;89.36;99446.56;5010061;28;20614;-81
2021/08/07 00:06:46;;;;;;;;;;;18.40;96.10;;;17.93;89.23;99457.59;4991288;28;20354;-80
2021/08/07 00:09:13;;;;;;;;;;;18.40;96.20;;;17.94;89.40;99463.91;5009703;28;20012;-80
2021/08/07 00:11:40;;;;;;;;;;;18.40;96.20;;;17.91;89.32;99456.97;5009741;28;19963;-80
2021/08/07 00:14:07;;;;;;;;;;;18.40;96.00;;;17.92;89.60;99460.59;5009699;28;19964;-80
2021/08/07 00:16:34;;;;;;;;;;;18.50;96.20;;;17.90;89.43;99460.03;5008910;28;20349;-80
2021/08/07 00:19:01;;;;;;;;;;;18.50;95.80;;;17.92;89.29;99457.84;5009191;28;20275;-80
2021/08/07 00:21:29;;;;;;;;;;;18.50;95.60;;;17.90;89.32;99449.84;4992204;28;19935;-80
2021/08/07 00:23:56;;;;;;;;;;;18.50;95.60;;;17.90;89.15;99449.84;4995684;28;19967;-80
2021/08/07 00:26:23;;;;;;;;;;;18.50;95.50;;;17.90;89.32;99449.84;5012705;28;19940;-80
2021/08/07 00:28:50;;;;;;;;;;;18.50;95.50;;;17.90;89.23;99452.59;4995667;28;19979;-80
2021/08/07 00:31:18;;;;;;;;;;;18.50;95.50;;;17.90;89.13;99438.00;4995749;28;20374;-80
2021/08/07 00:33:46;;;;;;;;;;;18.40;95.20;;;17.91;89.08;99440.47;4995660;28;19925;-80
2021/08/07 00:36:13;;;;;;;;;;;18.50;95.40;;;17.91;89.00;99439.66;4994779;28;19976;-80
2021/08/07 00:38:41;;;;;;;;;;;18.50;95.40;;;17.90;89.19;99438.00;4995750;28;19991;-80
2021/08/07 00:41:08;;;;;;;;;;;18.40;95.50;;;17.88;88.83;99432.75;4995460;28;19979;-80
2021/08/07 00:43:35;;;;;;;;;;;18.40;95.30;;;17.86;89.08;99432.19;5013201;28;19925;-81
2021/08/07 00:46:09;;;;;;;;;;;18.40;95.50;;;17.89;88.97;99431.63;4994775;28;19926;-80
2021/08/07 00:48:38;;;;;;;;;;;18.40;95.70;;;17.90;89.11;99427.81;4995305;28;19926;-80
2021/08/07 00:51:07;;;;;;;;;;;18.40;95.60;;;17.92;89.33;99425.63;5012991;28;19925;-80
2021/08/07 00:53:37;;;;;;;;;;;18.40;95.80;;;17.90;89.33;99425.06;4995266;28;19931;-81
2021/08/07 00:56:09;;;;;;;;;;;18.40;95.90;;;17.87;89.46;99422.81;4994406;28;19928;-81
2021/08/07 00:58:46;;;;;;;;;;;18.40;96.00;;;17.89;89.46;99420.63;4995116;28;20427;-80
2021/08/07 01:01:15;;;;;;;;;;;18.40;95.90;;;17.89;89.26;99420.63;4995008;28;19936;-81
2021/08/07 01:03:46;;;;;;;;;;;18.40;95.80;;;17.88;89.54;99424.50;4995225;28;19929;-80
2021/08/07 01:06:27;;;;;;;;;;;18.40;95.80;;;17.85;89.45;99426.94;4994311;28;19955;-80
2021/08/07 01:09:03;;;;;;;;;;;18.40;96.10;;;17.84;89.76;99404.09;4994584;28;19986;-80
2021/08/07 01:11:40;;;;;;;;;;;18.40;96.10;;;17.84;89.58;99403.19;4994902;28;20539;-80
2021/08/07 01:14:12;;;;;;;;;;;18.40;96.00;;;17.85;89.39;99410.41;4994973;28;19921;-80
2021/08/07 01:16:43;;;;;;;;;;;18.40;96.00;;;17.86;89.56;99409.31;4994235;28;19925;-81
2021/08/07 01:19:16;;;;;;;;;;;18.30;96.00;;;17.83;89.23;99405.13;4994695;28;19921;-80
2021/08/07 01:21:50;;;;;;;;;;;18.30;95.90;;;17.84;89.40;99400.44;5012636;28;19932;-81
2021/08/07 01:24:24;;;;;;;;;;;18.30;95.80;;;17.83;89.05;99399.63;4994753;28;19929;-80
2021/08/07 01:27:18;;;;;;;;;;;18.30;95.60;;;17.78;88.93;99408.69;4993930;28;19936;-80
2021/08/07 01:29:49;;;;;;;;;;;18.30;95.70;;;17.78;89.28;99397.66;4994381;28;20317;-81
2021/08/07 01:32:17;;;;;;;;;;;18.30;95.80;;;17.81;89.23;99399.06;4994543;28;19961;-80
2021/08/07 01:34:45;;;;;;;;;;;18.30;95.80;;;17.82;89.11;99403.47;4993694;28;19925;-80
2021/08/07 01:37:19;;;;;;;;;;;18.30;95.90;;;17.78;88.94;99405.91;4993739;28;19945;-80
2021/08/07 01:40:08;;;;;;;;;;;18.30;95.90;;;17.78;89.02;99399.56;4994424;28;19921;-80
2021/08/07 01:43:02;;;;;;;;;;;18.30;95.80;;;17.78;89.18;99403.16;5008924;28;19925;-80
2021/08/07 01:45:35;;;;;;;;;;;18.30;95.90;;;17.78;89.30;99402.31;4994487;28;19936;-80
2021/08/07 01:48:06;;;;;;;;;;;18.30;96.00;;;17.79;89.26;99407.56;4993568;28;20473;-80
2021/08/07 01:50:49;;;;;;;;;;;18.30;96.00;;;17.81;89.19;99401.81;4994371;28;20424;-80
2021/08/07 01:53:20;;;;;;;;;;;18.30;95.90;;;17.80;89.09;99405.66;5011906;28;19925;-80
2021/08/07 01:55:55;;;;;;;;;;;18.30;95.80;;;17.80;88.90;99411.16;4994137;28;19975;-81
2021/08/07 01:58:28;;;;;;;;;;;18.30;95.70;;;17.76;88.90;99410.00;4993775;28;19922;-81
2021/08/07 02:00:56;;;;;;;;;;;18.30;95.70;;;17.77;88.80;99412.50;4994005;28;20349;-81
2021/08/07 02:03:34;;;;;;;;;;;18.30;95.90;;;17.77;88.79;99406.19;4993999;28;19921;-80
2021/08/07 02:06:02;;;;;;;;;;;18.30;95.70;;;17.75;88.93;99406.44;4993177;28;19991;-80
2021/08/07 02:08:31;;;;;;;;;;;18.20;95.60;;;17.74;88.40;99413.03;4993877;28;20632;-80
2021/08/07 02:10:59;;;;;;;;;;;18.20;95.30;;;17.73;88.47;99405.84;4993785;28;19921;-81
2021/08/07 02:13:29;;;;;;;;;;;18.10;95.30;;;17.75;88.43;99400.09;4993877;28;19925;-80
2021/08/07 02:16:04;;;;;;;;;;;18.10;95.40;;;17.74;88.45;99401.19;4992953;28;20023;-81
2021/08/07 02:18:33;;;;;;;;;;;18.10;95.40;;;17.73;88.18;99410.53;5006970;22;20323;-83
2021/08/07 02:21:02;;;;;;;;;;;18.10;95.50;;;17.73;88.34;99416.03;4990432;28;19925;-83
2021/08/07 02:23:37;;;;;;;;;;;18.10;95.60;;;17.71;88.24;99404.47;4974512;28;19984;-84
2021/08/07 02:26:08;;;;;;;;;;;18.10;95.60;;;17.71;88.23;99418.22;4973671;28;19932;-83
2021/08/07 02:28:47;;;;;;;;;;;18.10;95.70;;;17.66;88.30;99415.41;4974233;28;20024;-83
2021/08/07 02:31:15;;;;;;;;;;;18.00;95.60;;;17.67;88.16;99408.81;4974226;28;19933;-83
2021/08/07 02:33:46;;;;;;;;;;;18.00;95.90;;;17.68;88.15;99415.97;4974420;28;20747;-83
2021/08/07 02:36:16;;;;;;;;;;;17.90;95.90;;;17.66;88.13;99407.97;4973444;28;20317;-83
2021/08/07 02:38:50;;;;;;;;;;;17.90;95.80;;;17.64;87.92;99395.56;4974154;28;19921;-84
2021/08/07 02:41:18;;;;;;;;;;;17.90;95.80;;;17.65;87.99;99405.47;4974070;28;20020;-84
2021/08/07 02:43:49;;;;;;;;;;;17.80;96.00;;;17.62;87.98;99401.34;4974176;28;19926;-83
2021/08/07 02:46:18;;;;;;;;;;;17.80;96.10;;;17.60;87.97;99400.75;4973377;28;20780;-83
2021/08/07 02:48:46;;;;;;;;;;;17.80;96.10;;;17.58;87.83;99391.94;4973997;28;20024;-83
2021/08/07 02:51:13;;;;;;;;;;;17.80;96.00;;;17.56;87.77;99389.44;4973854;28;19972;-84
2021/08/07 02:53:50;;;;;;;;;;;17.80;96.00;;;17.55;87.67;99382.28;4974014;28;19925;-83
2021/08/07 02:56:20;;;;;;;;;;;17.80;95.90;;;17.53;87.47;99378.94;4973047;28;19928;-84
2021/08/07 02:58:49;;;;;;;;;;;17.80;95.80;;;17.54;87.59;99394.38;4974152;28;19925;-84
2021/08/07 03:01:18;;;;;;;;;;;17.70;95.90;;;17.52;87.35;99388.28;4973858;28;20007;-83
2021/08/07 03:03:51;;;;;;;;;;;17.70;95.90;;;17.50;87.52;99390.47;4973885;28;19929;-84
2021/08/07 03:06:19;;;;;;;;;;;17.70;95.90;;;17.50;87.48;99390.47;4990323;28;19921;-84
2021/08/07 03:08:46;;;;;;;;;;;17.70;96.10;;;17.52;87.52;99382.81;4973801;28;19929;-84
2021/08/07 03:11:15;;;;;;;;;;;17.70;96.10;;;17.53;87.54;99389.94;4973536;28;20020;-83
2021/08/07 03:13:44;;;;;;;;;;;17.70;96.10;;;17.51;87.53;99381.13;4975995;28;20009;-84
2021/08/07 03:16:13;;;;;;;;;;;17.70;96.10;;;17.51;87.59;99377.56;4972725;28;19925;-84
2021/08/07 03:18:45;;;;;;;;;;;17.70;96.10;;;17.49;87.71;99383.31;4973404;28;20282;-84
2021/08/07 03:21:13;;;;;;;;;;;17.70;96.20;;;17.49;87.80;99379.72;4973476;28;20064;-84
2021/08/07 03:23:56;;;;;;;;;;;17.70;96.30;;;17.47;87.88;99379.16;4973416;28;19926;-83
2021/08/07 03:26:25;;;;;;;;;;;17.70;96.20;;;17.46;87.91;99371.97;4972517;28;19925;-83
2021/08/07 03:28:54;;;;;;;;;;;17.70;96.30;;;17.44;87.59;99375.00;4973263;28;19922;-84
2021/08/07 03:31:25;;;;;;;;;;;17.70;96.10;;;17.45;87.85;99376.66;4990607;28;19975;-83
2021/08/07 03:33:53;;;;;;;;;;;17.70;96.10;;;17.45;87.50;99376.66;4973159;28;20283;-83
2021/08/07 03:36:20;;;;;;;;;;;17.70;95.90;;;17.43;87.42;99375.28;4989779;28;20016;-83
2021/08/07 03:38:54;;;;;;;;;;;17.60;95.60;;;17.41;87.18;99372.78;4972941;28;20470;-84
2021/08/07 03:41:21;;;;;;;;;;;17.60;95.60;;;17.41;87.14;99375.53;4973011;28;19926;-83
2021/08/07 03:43:50;;;;;;;;;;;17.60;95.60;;;17.40;86.68;99373.84;4972924;28;19922;-83
2021/08/07 03:46:19;;;;;;;;;;;17.50;95.60;;;17.38;86.42;99365.03;4972133;28;19928;-84
2021/08/07 03:48:48;;;;;;;;;;;17.50;95.50;;;17.36;86.63;99367.19;4972944;28;20445;-83
2021/08/07 03:51:15;;;;;;;;;;;17.50;95.60;;;17.33;86.50;99365.81;4972789;28;19926;-84
2021/08/07 03:53:47;;;;;;;;;;;17.50;95.60;;;17.34;86.51;99364.72;4972863;28;20024;-84
2021/08/07 03:56:22;;;;;;;;;;;17.50;95.60;;;17.33;86.29;99364.97;4972936;28;20442;-83
2021/08/07 03:58:50;;;;;;;;;;;17.50;95.50;;;17.33;86.30;99367.72;4979294;28;19937;-83
2021/08/07 04:01:22;;;;;;;;;;;17.40;95.40;;;17.31;86.23;99368.00;4979308;28;19925;-84
2021/08/07 04:03:52;;;;;;;;;;;17.40;95.40;;;17.29;86.08;99366.59;4979362;28;19973;-83
2021/08/07 04:06:20;;;;;;;;;;;17.40;95.40;;;17.30;86.28;99371.81;4978556;28;19947;-83
2021/08/07 04:08:47;;;;;;;;;;;17.40;95.40;;;17.29;86.34;99367.41;4979048;28;19936;-83
2021/08/07 04:11:14;;;;;;;;;;;17.50;95.50;;;17.29;86.42;99359.16;4979127;28;19981;-83
2021/08/07 04:13:49;;;;;;;;;;;17.50;95.40;;;17.29;86.40;99356.41;4979123;28;20277;-84
2021/08/07 04:16:16;;;;;;;;;;;17.50;95.40;;;17.27;86.48;99352.25;4978354;28;20309;-84
2021/08/07 04:18:43;;;;;;;;;;;17.50;95.40;;;17.27;86.44;99350.34;4978850;28;19928;-83
2021/08/07 04:21:12;;;;;;;;;;;17.50;95.10;;;17.27;86.54;99350.34;4979090;28;20421;-83
2021/08/07 04:23:39;;;;;;;;;;;17.50;95.30;;;17.26;86.53;99350.59;4978969;28;19984;-83
2021/08/07 04:26:06;;;;;;;;;;;17.60;95.10;;;17.27;86.42;99342.09;4978234;28;19925;-83
2021/08/07 04:28:33;;;;;;;;;;;17.60;94.90;;;17.26;86.72;99347.84;4978842;28;20452;-83
2021/08/07 04:31:00;;;;;;;;;;;17.60;94.90;;;17.26;86.75;99345.91;4978957;28;20271;-83
2021/08/07 04:33:27;;;;;;;;;;;17.70;95.00;;;17.27;86.83;99346.75;4979080;28;19953;-83
2021/08/07 04:35:55;;;;;;;;;;;17.70;94.70;;;17.28;86.58;99349.25;4978354;28;20363;-84
2021/08/07 04:38:26;;;;;;;;;;;17.80;94.60;;;17.27;87.08;99353.09;4978801;28;19925;-83
2021/08/07 04:40:54;;;;;;;;;;;17.80;94.70;;;17.29;87.25;99350.09;4978927;28;19929;-84
2021/08/07 04:43:31;;;;;;;;;;;17.80;94.80;;;17.29;86.90;99350.09;4978983;28;20408;-83
2021/08/07 04:45:58;;;;;;;;;;;17.80;94.40;;;17.30;87.09;99338.81;4978065;28;19932;-83
2021/08/07 04:48:26;;;;;;;;;;;17.80;94.60;;;17.32;87.00;99338.56;4978595;28;19926;-83
2021/08/07 04:51:01;;;;;;;;;;;17.80;94.50;;;17.32;87.04;99333.06;4979006;28;19929;-83
2021/08/07 04:53:32;;;;;;;;;;;17.90;94.50;;;17.34;87.07;99341.88;4978851;28;20704;-84
2021/08/07 04:56:05;;;;;;;;;;;17.90;94.40;;;17.33;87.08;99334.72;4978119;28;20252;-83
2021/08/07 04:58:32;;;;;;;;;;;17.90;94.40;;;17.32;87.24;99336.63;4978565;28;19926;-83
2021/08/07 05:01:00;;;;;;;;;;;17.90;94.20;;;17.35;87.31;99338.06;4978524;28;19932;-83
2021/08/07 05:03:27;;;;;;;;;;;17.90;94.20;;;17.35;87.06;99340.81;4978772;28;19973;-83
2021/08/07 05:05:54;;;;;;;;;;;17.90;93.90;;;17.35;87.22;99343.56;4978223;28;19964;-84
2021/08/07 05:08:23;;;;;;;;;;;18.00;94.10;;;17.36;87.13;99339.69;4976017;28;19925;-84
2021/08/07 05:10:53;;;;;;;;;;;18.00;94.00;;;17.34;86.79;99336.38;4975705;28;20378;-83
2021/08/07 05:13:21;;;;;;;;;;;18.00;93.40;;;17.35;86.77;99327.06;4977958;28;19922;-84
2021/08/07 05:15:48;;;;;;;;;;;18.10;93.20;;;17.36;86.77;99334.19;4975310;28;20394;-83
2021/08/07 05:18:16;;;;;;;;;;;18.10;93.30;;;17.31;86.73;99337.72;4975174;28;19929;-83
2021/08/07 05:20:43;;;;;;;;;;;18.10;93.00;;;17.32;87.15;99338.56;4975465;28;19925;-84
2021/08/07 05:23:10;;;;;;;;;;;18.20;93.00;;;17.34;86.98;99342.72;4975360;28;20449;-83
2021/08/07 05:25:38;;;;;;;;;;;18.20;92.90;;;17.33;86.94;99335.56;4975344;28;19929;-83
2021/08/07 05:28:07;;;;;;;;;;;18.20;92.60;;;17.36;86.90;99335.06;4974703;28;19996;-83
2021/08/07 05:30:39;;;;;;;;;;;18.20;92.80;;;17.39;86.80;99341.94;4975369;28;20443;-83
2021/08/07 05:33:06;;;;;;;;;;;18.20;92.90;;;17.41;86.65;99347.19;4975085;28;19922;-84
2021/08/07 05:35:33;;;;;;;;;;;18.20;92.50;;;17.44;86.91;99341.16;4975105;28;20008;-84
2021/08/07 05:38:00;;;;;;;;;;;18.20;93.00;;;17.44;87.08;99349.41;4991835;28;20271;-84
2021/08/07 05:40:27;;;;;;;;;;;18.20;93.20;;;17.45;87.25;99349.16;4992530;28;20378;-83
2021/08/07 05:42:56;;;;;;;;;;;18.30;93.40;;;17.45;87.13;99349.16;4975166;28;20020;-83
2021/08/07 05:45:25;;;;;;;;;;;18.30;92.90;;;17.44;86.83;99347.50;4975184;28;19926;-83
2021/08/07 05:47:54;;;;;;;;;;;18.30;93.00;;;17.47;87.39;99352.47;4974352;28;19922;-84
2021/08/07 05:50:22;;;;;;;;;;;18.30;93.50;;;17.48;87.24;99354.16;4992440;28;19961;-83
2021/08/07 05:52:50;;;;;;;;;;;18.20;93.50;;;17.47;87.43;99340.66;4974848;28;19933;-84
2021/08/07 05:55:20;;;;;;;;;;;18.20;93.50;;;17.45;87.34;99340.09;4974911;28;19926;-84
2021/08/07 05:57:47;;;;;;;;;;;18.30;93.40;;;17.45;87.42;99340.91;4974112;28;19953;-83
2021/08/07 06:00:16;;;;;;;;;;;18.20;93.50;;;17.47;87.44;99343.41;4974650;28;19929;-83
2021/08/07 06:02:51;;;;;;;;;;;18.20;93.50;;;17.45;87.51;99331.81;4974923;28;19925;-83
2021/08/07 06:05:25;;;;;;;;;;;18.20;93.70;;;17.46;87.77;99323.31;4974682;28;20020;-83
2021/08/07 06:07:52;;;;;;;;;;;18.20;94.10;;;17.49;88.01;99322.78;4973952;28;20374;-83
2021/08/07 06:10:20;;;;;;;;;;;18.30;94.30;;;17.50;88.30;99324.47;4974539;28;19949;-83
2021/08/07 06:12:48;;;;;;;;;;;18.20;94.40;;;17.51;88.18;99328.84;4974961;28;19926;-83
2021/08/07 06:15:16;;;;;;;;;;;18.30;94.30;;;17.50;88.22;99324.47;4974517;28;20358;-83
2021/08/07 06:17:44;;;;;;;;;;;18.30;94.10;;;17.52;88.30;99327.78;4973521;28;19925;-83
2021/08/07 06:20:14;;;;;;;;;;;18.30;94.30;;;17.52;88.43;99327.78;4973644;28;19926;-83
2021/08/07 06:22:46;;;;;;;;;;;18.30;94.30;;;17.55;88.64;99337.44;4974336;28;20283;-84
2021/08/07 06:25:14;;;;;;;;;;;18.30;94.20;;;17.56;88.76;99325.34;4974223;28;19921;-83
2021/08/07 06:27:42;;;;;;;;;;;18.40;94.30;;;17.56;88.76;99331.66;4973460;28;19968;-83
2021/08/07 06:30:11;;;;;;;;;;;18.40;94.20;;;17.56;89.16;99339.91;4974263;28;20044;-83
2021/08/07 06:32:39;;;;;;;;;;;18.40;94.60;;;17.58;88.82;99331.41;4974082;28;19925;-83
2021/08/07 06:35:06;;;;;;;;;;;18.50;94.10;;;17.59;89.12;99333.06;4991678;28;19972;-83
2021/08/07 06:37:35;;;;;;;;;;;18.50;94.30;;;17.58;89.18;99323.97;4990814;28;20290;-83
2021/08/07 06:40:03;;;;;;;;;;;18.50;94.30;;;17.58;89.63;99332.22;4973973;28;19929;-83
2021/08/07 06:42:31;;;;;;;;;;;18.60;94.30;;;17.61;89.63;99321.78;4974128;28;19926;-83
2021/08/07 06:45:06;;;;;;;;;;;18.60;93.90;;;17.62;89.44;99332.56;4973855;28;20409;-83
2021/08/07 06:47:35;;;;;;;;;;;18.70;93.50;;;17.59;89.40;99333.06;4973067;28;20283;-83
2021/08/07 06:50:02;;;;;;;;;;;18.90;92.80;;;17.64;89.50;99337.81;4973782;28;19925;-83
2021/08/07 06:52:29;;;;;;;;;;;19.00;92.40;;;17.68;90.40;99337.00;4973770;28;20309;-83
2021/08/07 06:54:57;;;;;;;;;;;19.10;92.60;;;17.72;90.53;99342.81;4973688;28;19926;-84
2021/08/07 06:57:26;;;;;;;;;;;19.30;92.10;;;17.80;90.76;99339.63;4972624;28;20281;-83
2021/08/07 06:59:53;;;;;;;;;;;19.80;90.60;;;17.82;89.36;99334.69;4973365;28;19925;-83
2021/08/07 07:02:22;;;;;;;;;;;20.00;88.60;;;17.86;89.43;99333.09;4973751;28;19922;-84
2021/08/07 07:04:50;;;;;;;;;;;20.10;88.10;;;17.91;89.45;99324.84;4973498;28;19929;-83
2021/08/07 07:07:19;;;;;;;;;;;20.20;88.00;;;17.96;89.39;99324.09;4972830;28;20287;-84
2021/08/07 07:09:46;;;;;;;;;;;20.20;88.00;;;18.00;89.80;99327.16;4987707;28;19926;-83
2021/08/07 07:12:16;;;;;;;;;;;20.20;88.10;;;18.01;89.09;99337.06;4973310;28;19925;-83
2021/08/07 07:14:43;;;;;;;;;;;20.10;87.80;;;18.05;88.89;99329.91;4990939;28;20366;-84
2021/08/07 07:17:10;;;;;;;;;;;20.00;88.00;;;18.07;89.23;99330.50;4990177;28;19942;-83
2021/08/07 07:19:38;;;;;;;;;;;20.00;88.80;;;18.08;89.24;99329.41;4973236;28;20012;-84
2021/08/07 07:22:06;;;;;;;;;;;19.90;89.30;;;18.08;89.38;99327.47;4973361;28;20382;-83
2021/08/07 07:24:34;;;;;;;;;;;19.90;89.40;;;18.05;87.40;99327.16;4973196;28;19925;-83
2021/08/07 07:27:01;;;;;;;;;;;19.90;87.90;;;18.04;88.25;99342.88;4989924;28;20020;-83
2021/08/07 07:29:30;;;;;;;;;;;19.90;88.30;;;18.06;87.10;99345.34;4973054;28;20457;-84
2021/08/07 07:31:58;;;;;;;;;;;19.80;87.80;;;18.02;87.57;99342.28;4972337;28;20449;-83
2021/08/07 07:34:25;;;;;;;;;;;19.80;88.30;;;18.06;87.94;99342.59;4973135;28;20021;-83
2021/08/07 07:36:52;;;;;;;;;;;19.80;88.90;;;18.11;88.66;99339.91;4972266;28;19922;-83
2021/08/07 07:39:20;;;;;;;;;;;19.90;89.30;;;18.14;89.34;99334.69;4972739;28;19969;-83
2021/08/07 07:41:47;;;;;;;;;;;20.30;87.80;;;18.21;88.14;99337.22;4990495;28;20382;-84
2021/08/07 07:44:14;;;;;;;;;;;20.60;86.00;;;18.27;89.31;99343.59;4972938;28;19930;-83
2021/08/07 07:46:43;;;;;;;;;;;20.80;86.30;;;18.28;88.16;99340.59;4989898;28;20567;-84
2021/08/07 07:49:10;;;;;;;;;;;20.80;84.90;;;18.35;87.75;99340.34;4972743;28;20318;-83
2021/08/07 07:51:37;;;;;;;;;;;21.10;84.50;;;18.39;87.53;99326.88;4972897;28;19992;-84
2021/08/07 07:54:04;;;;;;;;;;;21.20;84.10;;;18.44;88.08;99327.72;4973158;28;20673;-83
2021/08/07 07:56:32;;;;;;;;;;;21.20;83.90;;;18.49;87.28;99326.94;4972198;28;19930;-84
2021/08/07 07:58:59;;;;;;;;;;;21.30;83.20;;;18.52;86.49;99329.16;4972770;28;19929;-83
2021/08/07 08:01:27;;;;;;;;;;;21.30;83.10;;;18.55;86.03;99331.38;4972734;28;20395;-84
2021/08/07 08:03:55;;;;;;;;;;;21.30;82.70;;;18.56;86.10;99333.03;4972934;28;19931;-84
2021/08/07 08:06:22;;;;;;;;;;;21.20;83.00;;;18.58;86.47;99333.59;4971868;28;19922;-84
2021/08/07 08:08:50;;;;;;;;;;;21.20;83.50;;;18.60;86.50;99336.09;4972794;28;20528;-83
2021/08/07 08:11:17;;;;;;;;;;;21.10;83.70;;;18.64;86.71;99337.22;4990335;28;19926;-84
2021/08/07 08:13:44;;;;;;;;;;;21.10;84.20;;;18.66;85.66;99338.63;4972638;28;20028;-84
2021/08/07 08:16:11;;;;;;;;;;;21.20;83.70;;;18.65;85.90;99339.69;4971896;28;19928;-84
2021/08/07 10:17:29;;;;;;;;;;;22.30;79.70;;;19.79;80.64;99252.66;4996113;22;19932;-88
2021/08/07 10:19:59;;;;;;;;;;;22.40;78.40;;;19.87;82.06;99258.41;4985619;28;20369;-91
2021/08/07 10:22:27;;;;;;;;;;;22.50;79.40;;;19.90;79.55;99244.06;4998393;28;19926;-87
2021/08/07 10:25:00;;;;;;;;;;;22.60;77.50;;;19.94;80.36;99241.59;4973900;28;19983;-84
2021/08/07 10:27:30;;;;;;;;;;;22.70;77.50;;;20.01;82.69;99247.66;4973554;28;19932;-88
2021/08/07 10:30:03;;;;;;;;;;;22.70;79.70;;;20.11;80.14;99238.53;4974988;28;19928;-92
2021/08/07 10:32:35;;;;;;;;;;;22.70;77.80;;;20.17;78.23;99231.06;4984238;28;19984;-82
2021/08/07 10:35:02;;;;;;;;;;;22.70;77.10;;;20.21;78.65;99227.44;4980755;28;19925;-85
2021/08/07 10:37:29;;;;;;;;;;;22.70;77.00;;;20.12;77.54;99212.53;4992946;28;19960;-82
2021/08/07 10:39:57;;;;;;;;;;;22.60;76.40;;;20.07;77.89;99221.69;4993417;28;19925;-89
2021/08/07 10:42:27;;;;;;;;;;;22.50;76.90;;;20.01;76.86;99206.22;4969846;28;19922;-87
2021/08/07 10:44:56;;;;;;;;;;;22.50;77.00;;;20.00;76.56;99203.75;4954716;28;20108;-85
2021/08/07 10:47:39;;;;;;;;;;;22.40;76.80;;;19.98;76.80;99205.97;4973037;28;19926;-85
2021/08/07 10:50:31;;;;;;;;;;;22.40;76.70;;;19.97;77.03;99204.28;4979507;28;19929;-87
2021/08/07 10:53:02;;;;;;;;;;;22.50;77.00;;;20.08;77.58;99194.88;4964654;28;20394;-87
2021/08/07 10:55:44;;;;;;;;;;;22.60;76.50;;;20.19;75.95;99195.69;4991403;28;20011;-88
2021/08/07 10:58:32;;;;;;;;;;;22.70;75.30;;;20.30;76.41;99187.09;4991878;28;20508;-87
2021/08/07 11:01:27;;;;;;;;;;;22.90;75.60;;;20.37;75.91;99180.41;4997594;28;19925;-90
2021/08/07 11:04:07;;;;;;;;;;;23.00;74.00;;;20.45;77.19;99177.09;5011253;28;19925;-90
2021/08/07 11:06:56;;;;;;;;;;;23.00;75.40;;;20.50;74.57;99172.38;4989252;28;20417;-91
2021/08/07 11:09:26;;;;;;;;;;;23.00;73.50;;;20.49;74.66;99175.41;4992332;28;19921;-89
2021/08/07 11:12:27;;;;;;;;;;;23.00;74.00;;;20.52;73.63;99180.34;4992901;28;19928;-91
2021/08/07 11:15:03;;;;;;;;;;;23.00;73.30;;;20.57;74.51;99183.09;4992695;28;19921;-91
2021/08/07 11:17:38;;;;;;;;;;;23.00;74.90;;;20.47;73.94;99180.41;4982645;28;19925;-89
2021/08/07 11:20:12;;;;;;;;;;;22.90;74.30;;;20.41;72.84;99187.88;4990700;28;20032;-89
2021/08/07 11:23:10;;;;;;;;;;;22.80;73.60;;;20.34;70.64;99192.06;4989848;28;20153;-84
2021/08/07 11:26:02;;;;;;;;;;;22.80;72.10;;;20.28;71.74;99194.81;4990233;28;19975;-86
2021/08/07 11:28:29;;;;;;;;;;;22.60;73.90;;;20.24;73.22;99179.94;4989647;28;19931;-88
2021/08/07 11:31:12;;;;;;;;;;;22.50;74.10;;;20.18;71.46;99189.34;4997667;28;20020;-82
2021/08/07 11:33:39;;;;;;;;;;;22.50;73.30;;;20.16;74.12;99177.72;4990726;28;20373;-83
2021/08/07 11:36:10;;;;;;;;;;;22.40;74.90;;;20.13;74.34;99183.81;4989811;28;19949;-82
2021/08/07 11:39:02;;;;;;;;;;;22.40;75.90;;;20.13;74.69;99183.81;5007715;28;19972;-83
2021/08/07 11:41:34;;;;;;;;;;;22.30;75.70;;;20.12;73.56;99184.91;5010226;28;19925;-88
2021/08/07 11:44:03;;;;;;;;;;;22.30;74.30;;;20.08;73.65;99178.31;5010350;28;19922;-85
2021/08/07 11:46:40;;;;;;;;;;;22.30;75.20;;;20.07;74.13;99179.44;5002015;28;20436;-84
2021/08/07 11:49:07;;;;;;;;;;;22.20;75.20;;;20.06;73.67;99170.28;4985037;28;19925;-88
2021/08/07 11:51:37;;;;;;;;;;;22.20;75.30;;;20.04;74.47;99167.00;4987252;28;19929;-84
2021/08/07 11:54:06;;;;;;;;;;;22.10;75.90;;;20.06;73.35;99169.47;4986866;28;19995;-85
2021/08/07 11:56:37;;;;;;;;;;;22.20;75.00;;;20.08;74.36;99172.78;4988089;28;19928;-86
2021/08/07 11:59:05;;;;;;;;;;;22.20;75.60;;;20.16;74.29;99169.44;4987241;28;20189;-83
2021/08/07 12:01:35;;;;;;;;;;;22.40;74.90;;;20.22;74.45;99161.97;4980919;28;19925;-83
2021/08/07 12:04:02;;;;;;;;;;;22.50;74.60;;;20.24;71.38;99160.59;4971858;28;19936;-83
2021/08/07 12:06:31;;;;;;;;;;;22.70;72.10;;;20.29;73.28;99157.78;4987421;28;19926;-85
2021/08/07 12:09:01;;;;;;;;;;;22.80;72.60;;;20.34;74.02;99159.72;4990194;28;19929;-85
2021/08/07 12:11:28;;;;;;;;;;;23.00;73.00;;;20.36;71.15;99167.72;4989932;28;19926;-84
2021/08/07 12:13:57;;;;;;;;;;;23.00;70.90;;;20.36;73.55;99162.19;4990316;28;20027;-88
2021/08/07 12:16:28;;;;;;;;;;;23.00;72.50;;;20.31;73.42;99166.66;4987254;28;19957;-89
2021/08/07 12:18:58;;;;;;;;;;;22.80;73.10;;;20.29;71.28;99163.31;4974323;28;19932;-83
2021/08/07 12:21:31;;;;;;;;;;;22.80;71.90;;;20.29;70.36;99162.50;4993115;28;19991;-87
2021/08/07 12:24:01;;;;;;;;;;;22.70;71.10;;;20.30;72.38;99142.06;4993122;28;19932;-87
2021/08/07 12:26:30;;;;;;;;;;;22.80;71.60;;;20.34;71.64;99136.78;4992334;28;19925;-87
2021/08/07 12:29:02;;;;;;;;;;;22.90;71.90;;;20.42;72.75;99138.97;4992673;28;20211;-91
2021/08/07 12:31:45;;;;;;;;;;;23.00;71.90;;;20.46;73.14;99135.31;4993212;28;19929;-87
2021/08/07 12:34:14;;;;;;;;;;;23.20;72.20;;;20.48;71.76;99130.34;4993485;28;19922;-92
2021/08/07 12:36:41;;;;;;;;;;;23.20;70.90;;;20.49;73.93;99125.66;4992088;28;20398;-85
2021/08/07 12:39:09;;;;;;;;;;;23.20;72.20;;;20.54;73.68;99136.66;4974986;28;20293;-89
2021/08/07 12:41:36;;;;;;;;;;;23.30;72.10;;;20.56;72.40;99126.19;4992711;28;19921;-89
2021/08/07 12:44:25;;;;;;;;;;;23.30;71.10;;;20.63;75.06;99129.47;4993013;28;19926;-90
2021/08/07 12:46:54;;;;;;;;;;;23.30;73.20;;;20.64;73.25;99124.78;4992998;28;19928;-89
2021/08/07 12:49:40;;;;;;;;;;;23.20;72.20;;;20.63;72.32;99129.47;4993221;28;19921;-88
2021/08/07 12:52:09;;;;;;;;;;;23.10;71.80;;;20.59;68.42;99122.84;4993278;28;20279;-88
2021/08/07 12:54:38;;;;;;;;;;;23.00;70.20;;;20.56;67.71;99128.94;4993548;28;19922;-89
2021/08/07 12:57:20;;;;;;;;;;;22.90;70.20;;;20.57;69.18;99124.25;4992475;28;19925;-88
2021/08/07 12:59:48;;;;;;;;;;;22.80;70.90;;;20.56;67.08;99117.03;4977927;28;19928;-88
2021/08/07 13:02:15;;;;;;;;;;;22.70;69.90;;;20.53;68.66;99112.91;4993321;28;20363;-89
2021/08/07 13:04:46;;;;;;;;;;;22.70;70.30;;;20.54;68.28;99109.03;4975875;28;19929;-88
2021/08/07 13:07:14;;;;;;;;;;;22.70;70.30;;;20.56;68.04;99114.28;4975113;28;19926;-89
2021/08/07 13:09:43;;;;;;;;;;;22.70;70.00;;;20.57;66.02;99113.19;4975671;28;19931;-89
2021/08/07 13:12:13;;;;;;;;;;;22.70;69.00;;;20.55;68.94;99118.16;4975635;28;19999;-89
2021/08/07 13:14:42;;;;;;;;;;;22.60;71.00;;;20.53;67.36;99120.41;4993462;28;19925;-89
2021/08/07 13:17:10;;;;;;;;;;;22.60;70.40;;;20.56;65.85;99117.91;4988349;28;19947;-89
2021/08/07 13:19:45;;;;;;;;;;;22.60;68.70;;;20.56;64.36;99117.91;4991537;28;20020;-89
2021/08/07 13:22:16;;;;;;;;;;;22.60;67.40;;;20.54;66.94;99124.78;4993563;28;19929;-90
2021/08/07 13:24:51;;;;;;;;;;;22.50;69.80;;;20.51;68.34;99117.91;4992033;28;20040;-90
2021/08/07 13:27:19;;;;;;;;;;;22.50;69.20;;;20.54;66.93;99120.09;4991217;28;19973;-90
2021/08/07 13:30:00;;;;;;;;;;;22.50;68.10;;;20.48;67.27;99121.22;4991583;28;19936;-91
2021/08/07 13:32:29;;;;;;;;;;;22.50;69.80;;;20.48;64.19;99119.28;4991191;28;19939;-91